Time;durP1;ratioP1;P1;durP2;ratioP2;P2;SDS_P1;SDS_P2;PMS_P1;PMS_P2;Temp;Humidity;BMP_temperature;BMP_pressure;BME280_temperature;BME280_humidity;BME280_pressure;Samples;Min_cycle;Max_cycle;Signal;HPM_P1;HPM_P2
2022/05/06 00:01:27;;;;;;;2.65;1.85;;;17.90;60.00;;;;;;4991748;28;20264;-63
2022/05/06 00:03:58;;;;;;;2.25;1.60;;;18.00;60.20;;;;;;4971918;28;20253;-63
2022/05/06 00:06:29;;;;;;;2.70;1.60;;;18.00;60.20;;;;;;4971603;28;20281;-65
2022/05/06 00:08:59;;;;;;;2.13;1.85;;;18.00;61.00;;;;;;4971960;28;20198;-64
2022/05/06 00:11:30;;;;;;;1.58;1.45;;;18.10;60.50;;;;;;4981154;28;20284;-63
2022/05/06 00:14:01;;;;;;;2.08;1.75;;;18.10;60.40;;;;;;4991260;28;20205;-66
2022/05/06 00:16:33;;;;;;;2.00;1.50;;;18.10;60.50;;;;;;4991610;28;20237;-63
2022/05/06 00:19:04;;;;;;;2.28;1.73;;;18.10;60.50;;;;;;4991915;28;20201;-62
2022/05/06 00:21:35;;;;;;;1.70;1.60;;;18.20;60.50;;;;;;4994785;28;20304;-61
2022/05/06 00:24:06;;;;;;;2.00;1.80;;;18.20;60.60;;;;;;4994873;28;20194;-62
2022/05/06 00:26:37;;;;;;;2.88;1.95;;;18.20;61.40;;;;;;4989833;28;20257;-64
2022/05/06 00:29:08;;;;;;;3.92;2.05;;;18.30;62.50;;;;;;5009141;28;20576;-63
2022/05/06 00:31:40;;;;;;;3.30;1.88;;;18.30;62.80;;;;;;5010890;28;20203;-63
2022/05/06 00:34:11;;;;;;;1.98;1.77;;;18.30;62.50;;;;;;5010284;28;20209;-63
2022/05/06 00:36:41;;;;;;;4.15;1.65;;;18.40;62.30;;;;;;5010316;28;20224;-63
2022/05/06 00:39:12;;;;;;;2.28;1.77;;;18.50;62.20;;;;;;5011840;28;20203;-64
2022/05/06 00:41:42;;;;;;;2.72;1.70;;;18.50;62.00;;;;;;5011506;28;20600;-63
2022/05/06 00:44:13;;;;;;;2.65;2.30;;;18.50;62.60;;;;;;5011747;28;20216;-63
2022/05/06 00:46:45;;;;;;;2.50;1.90;;;18.60;62.90;;;;;;5010512;28;20278;-63
2022/05/06 00:49:16;;;;;;;1.98;1.73;;;18.60;62.70;;;;;;5009583;28;20202;-63
2022/05/06 00:51:47;;;;;;;3.00;2.00;;;18.70;62.60;;;;;;5010714;28;20193;-64
2022/05/06 00:54:17;;;;;;;4.28;2.00;;;18.80;62.60;;;;;;5010318;28;20224;-63
2022/05/06 00:56:48;;;;;;;2.25;1.80;;;18.80;62.50;;;;;;5008725;28;20216;-65
2022/05/06 00:59:19;;;;;;;2.03;1.85;;;18.80;62.50;;;;;;5011807;28;20193;-62
2022/05/06 01:01:51;;;;;;;3.90;2.13;;;18.90;62.40;;;;;;5010335;28;20292;-64
2022/05/06 01:04:22;;;;;;;3.28;2.13;;;18.90;62.30;;;;;;5010984;28;20271;-62
2022/05/06 01:06:53;;;;;;;2.50;2.10;;;18.90;62.20;;;;;;5010030;28;20264;-62
2022/05/06 01:09:24;;;;;;;3.20;2.25;;;19.00;62.10;;;;;;5010428;28;20275;-63
2022/05/06 01:11:56;;;;;;;2.13;1.70;;;19.00;62.00;;;;;;5011278;28;20201;-63
2022/05/06 01:14:36;;;;;;;3.35;2.10;;;19.00;62.00;;;;;;5010214;28;20224;-64
2022/05/06 01:17:09;;;;;;;1.95;1.75;;;19.00;61.90;;;;;;5010615;28;20217;-64
2022/05/06 01:19:40;;;;;;;2.05;1.85;;;19.10;61.80;;;;;;5008049;28;20211;-63
2022/05/06 01:22:13;;;;;;;2.05;1.88;;;19.10;61.70;;;;;;5011074;28;20205;-65
2022/05/06 01:24:43;;;;;;;2.20;1.95;;;19.10;61.60;;;;;;5010753;28;20201;-64
2022/05/06 01:27:19;;;;;;;2.65;1.73;;;19.20;61.50;;;;;;5010033;28;20271;-63
2022/05/06 01:29:50;;;;;;;3.75;2.00;;;19.20;61.40;;;;;;5010126;28;20200;-66
2022/05/06 01:32:23;;;;;;;3.33;1.90;;;19.20;61.20;;;;;;5008813;28;20196;-64
2022/05/06 01:34:58;;;;;;;2.72;2.10;;;19.30;61.20;;;;;;5010493;28;20201;-66
2022/05/06 01:37:32;;;;;;;2.50;2.28;;;19.30;61.30;;;;;;5009638;28;20224;-67
2022/05/06 01:40:05;;;;;;;2.63;1.88;;;19.30;61.10;;;;;;5010484;28;20220;-65
2022/05/06 01:42:37;;;;;;;3.00;1.90;;;19.30;61.00;;;;;;5010765;28;20263;-66
2022/05/06 01:45:10;;;;;;;2.33;2.10;;;19.40;61.00;;;;;;5010451;28;20201;-69
2022/05/06 01:47:43;;;;;;;2.85;2.35;;;19.40;60.90;;;;;;5006594;28;20252;-66
2022/05/06 01:50:15;;;;;;;4.70;2.40;;;19.40;60.80;;;;;;5010288;28;20201;-66
2022/05/06 01:52:50;;;;;;;3.50;2.25;;;19.50;60.80;;;;;;5009045;28;20189;-68
2022/05/06 01:55:22;;;;;;;3.28;2.10;;;19.50;60.80;;;;;;5010354;28;20196;-64
2022/05/06 01:57:52;;;;;;;2.78;2.40;;;19.50;60.80;;;;;;5009829;28;20275;-64
2022/05/06 02:00:24;;;;;;;2.50;1.95;;;19.60;60.80;;;;;;5010269;28;20193;-64
2022/05/06 02:02:54;;;;;;;3.65;2.20;;;19.60;60.70;;;;;;5008947;28;20282;-63
2022/05/06 02:05:25;;;;;;;3.30;2.10;;;19.60;60.60;;;;;;5009557;28;20216;-62
2022/05/06 02:07:57;;;;;;;2.92;2.20;;;19.60;60.60;;;;;;5009923;28;20581;-63
2022/05/06 02:10:28;;;;;;;3.38;2.30;;;19.70;60.50;;;;;;5009670;28;20197;-62
2022/05/06 02:12:59;;;;;;;2.42;2.22;;;19.70;60.50;;;;;;5009715;28;20197;-65
2022/05/06 02:15:30;;;;;;;3.00;2.40;;;19.70;60.40;;;;;;5008980;28;20205;-68
2022/05/06 02:18:00;;;;;;;2.47;2.25;;;19.80;60.40;;;;;;5009835;28;20221;-64
2022/05/06 02:20:34;;;;;;;3.17;2.58;;;19.80;60.30;;;;;;5008695;28;20652;-63
2022/05/06 02:23:06;;;;;;;3.78;2.50;;;19.80;60.10;;;;;;5009176;28;20204;-65
2022/05/06 02:25:38;;;;;;;4.18;2.30;;;19.80;60.80;;;;;;5009747;28;20286;-66
2022/05/06 02:28:09;;;;;;;2.58;2.22;;;19.90;60.00;;;;;;5009411;28;20292;-66
2022/05/06 02:33:26;;;;;;;2.53;2.20;;;19.90;59.90;;;;;;5008906;28;20207;-66
2022/05/06 02:35:57;;;;;;;3.78;2.70;;;20.00;59.90;;;;;;5008931;28;20208;-63
2022/05/06 02:38:31;;;;;;;2.72;2.10;;;20.00;59.90;;;;;;5008784;28;20217;-63
2022/05/06 02:41:01;;;;;;;3.17;2.30;;;20.00;59.80;;;;;;5008700;28;20595;-67
2022/05/06 02:43:32;;;;;;;3.15;2.30;;;20.00;59.70;;;;;;5007279;28;20193;-65
2022/05/06 02:46:02;;;;;;;2.95;2.28;;;20.10;60.40;;;;;;5009117;28;20275;-65
2022/05/06 02:48:33;;;;;;;3.53;2.33;;;20.10;59.70;;;;;;5008399;28;20213;-64
2022/05/06 02:51:04;;;;;;;2.80;2.35;;;20.10;59.60;;;;;;5008652;28;20197;-63
2022/05/06 02:53:36;;;;;;;3.38;2.22;;;20.10;59.60;;;;;;5008861;28;20208;-68
2022/05/06 02:56:07;;;;;;;3.40;2.72;;;20.20;59.50;;;;;;5008518;28;20278;-66
2022/05/06 02:58:37;;;;;;;2.90;2.30;;;20.20;59.50;;;;;;5008808;28;20240;-63
2022/05/06 03:01:08;;;;;;;3.90;2.58;;;20.20;59.40;;;;;;5008329;28;20254;-63
2022/05/06 03:03:39;;;;;;;2.65;2.25;;;20.30;59.40;;;;;;5008772;28;20259;-63
2022/05/06 03:06:10;;;;;;;4.00;2.45;;;20.30;59.30;;;;;;5008453;28;20774;-68
2022/05/06 03:08:42;;;;;;;2.67;2.20;;;20.30;59.20;;;;;;5007795;28;20272;-66
2022/05/06 03:11:13;;;;;;;3.50;2.83;;;20.40;59.20;;;;;;5008157;28;20819;-67
2022/05/06 03:13:43;;;;;;;3.10;2.35;;;20.40;59.20;;;;;;5008460;28;20535;-63
2022/05/06 03:16:14;;;;;;;2.33;2.13;;;20.40;59.20;;;;;;5008386;28;20932;-66
2022/05/06 03:18:44;;;;;;;2.92;2.40;;;20.50;59.10;;;;;;5008007;28;20224;-62
2022/05/06 03:21:15;;;;;;;3.95;2.38;;;20.50;59.10;;;;;;5007580;28;21374;-67
2022/05/06 03:23:52;;;;;;;2.45;2.25;;;20.50;59.00;;;;;;5005020;28;20251;-64
2022/05/06 03:26:23;;;;;;;3.33;2.50;;;20.50;59.00;;;;;;5008953;28;20579;-65
2022/05/06 03:28:56;;;;;;;2.50;2.20;;;20.50;58.90;;;;;;5008742;28;21411;-64
2022/05/06 03:31:27;;;;;;;3.40;2.40;;;20.60;58.90;;;;;;5009199;28;20287;-61
2022/05/06 03:33:58;;;;;;;3.28;2.42;;;20.60;58.90;;;;;;5006438;28;20601;-60
2022/05/06 03:36:29;;;;;;;2.97;2.65;;;20.60;58.80;;;;;;5006694;28;20210;-64
2022/05/06 03:39:01;;;;;;;2.60;2.40;;;20.60;58.70;;;;;;5007247;28;20197;-61
2022/05/06 03:41:32;;;;;;;2.50;2.30;;;20.60;58.70;;;;;;5007368;28;20189;-62
2022/05/06 03:44:02;;;;;;;2.58;2.38;;;20.60;58.60;;;;;;5008490;28;20197;-60
2022/05/06 03:46:33;;;;;;;2.13;1.92;;;20.70;58.60;;;;;;5008405;28;20220;-62
2022/05/06 03:49:04;;;;;;;3.88;2.40;;;20.70;58.60;;;;;;5008053;28;20193;-62
2022/05/06 03:51:33;;;;;;;2.22;2.03;;;20.70;58.60;;;;;;5007701;28;20193;-63
2022/05/06 03:54:07;;;;;;;2.50;2.10;;;20.70;58.60;;;;;;5010459;28;20192;-61
2022/05/06 03:56:37;;;;;;;2.20;2.00;;;20.80;58.70;;;;;;5012085;28;20257;-63
2022/05/06 03:59:08;;;;;;;2.80;2.40;;;20.80;58.60;;;;;;5012754;28;20204;-62
2022/05/06 04:01:38;;;;;;;4.10;2.50;;;20.80;58.50;;;;;;5011588;28;20262;-62
2022/05/06 04:04:09;;;;;;;3.22;2.50;;;20.80;58.40;;;;;;5012150;28;20219;-64
2022/05/06 04:06:39;;;;;;;2.42;2.22;;;20.90;58.50;;;;;;5011864;28;20244;-61
2022/05/06 04:09:12;;;;;;;3.08;2.47;;;20.90;58.50;;;;;;5012048;28;20721;-62
2022/05/06 04:11:43;;;;;;;2.72;2.30;;;20.90;58.40;;;;;;5011055;28;20672;-67
2022/05/06 04:14:13;;;;;;;3.42;2.40;;;20.90;58.40;;;;;;5012129;28;20347;-65
2022/05/06 04:16:44;;;;;;;2.38;2.10;;;20.90;58.40;;;;;;5010578;28;20217;-66
2022/05/06 04:19:14;;;;;;;3.13;2.38;;;20.90;58.50;;;;;;5012509;28;20212;-67
2022/05/06 04:24:45;;;;;;;2.88;2.47;;;20.90;58.30;;;;;;4931796;29;20669;-67
2022/05/06 04:27:16;;;;;;;2.60;2.40;;;20.90;58.20;;;;;;4994588;28;20228;-67
2022/05/06 04:29:46;;;;;;;2.63;2.33;;;21.00;58.30;;;;;;5011406;28;20193;-61
2022/05/06 04:32:19;;;;;;;2.53;2.33;;;20.90;58.20;;;;;;5011888;28;20220;-62
2022/05/06 04:34:50;;;;;;;2.30;2.10;;;21.00;58.30;;;;;;5011347;28;20216;-60
2022/05/06 04:37:23;;;;;;;2.70;2.38;;;21.00;58.20;;;;;;5011455;28;20290;-68
2022/05/06 04:39:56;;;;;;;2.30;2.10;;;21.00;58.00;;;;;;5011205;28;20200;-62
2022/05/06 04:42:26;;;;;;;2.30;2.10;;;21.00;57.90;;;;;;5011560;28;20221;-62
2022/05/06 04:44:57;;;;;;;2.45;2.25;;;21.00;57.90;;;;;;5010684;28;20193;-67
2022/05/06 04:47:27;;;;;;;2.95;1.92;;;21.00;57.80;;;;;;5012654;28;20286;-60
2022/05/06 04:49:58;;;;;;;2.92;2.38;;;21.00;57.80;;;;;;5011869;28;20224;-62
2022/05/06 04:52:28;;;;;;;2.50;2.30;;;21.00;57.70;;;;;;5011424;28;20189;-62
2022/05/06 04:55:01;;;;;;;2.20;2.00;;;21.00;57.70;;;;;;5010155;28;20590;-61
2022/05/06 04:57:31;;;;;;;2.40;2.20;;;21.00;57.70;;;;;;5009736;28;20275;-64
2022/05/06 05:00:02;;;;;;;2.50;2.30;;;21.00;57.70;;;;;;5011145;28;20189;-62
2022/05/06 05:02:32;;;;;;;2.40;2.20;;;21.00;57.70;;;;;;5012125;28;20192;-61
2022/05/06 05:05:03;;;;;;;2.88;2.60;;;21.00;57.70;;;;;;5011922;28;20228;-60
2022/05/06 05:07:34;;;;;;;2.40;2.20;;;21.00;57.70;;;;;;5012071;28;20236;-60
2022/05/06 05:10:07;;;;;;;2.92;2.13;;;21.00;57.70;;;;;;5013087;28;20576;-60
2022/05/06 05:12:38;;;;;;;2.47;2.28;;;21.00;57.70;;;;;;5010779;28;20723;-61
2022/05/06 05:15:09;;;;;;;2.42;2.22;;;21.00;57.70;;;;;;5007343;28;20189;-63
2022/05/06 05:17:39;;;;;;;2.53;2.25;;;21.00;57.70;;;;;;5006580;28;20212;-64
2022/05/06 05:20:11;;;;;;;3.10;2.22;;;21.00;57.70;;;;;;5012080;28;20247;-68
2022/05/06 05:22:42;;;;;;;2.60;2.40;;;21.00;57.70;;;;;;5012344;28;20201;-65
2022/05/06 05:25:14;;;;;;;2.50;2.30;;;21.00;57.60;;;;;;5010755;28;20264;-67
2022/05/06 05:27:45;;;;;;;3.42;2.65;;;21.00;57.60;;;;;;5003033;28;20256;-66
2022/05/06 05:30:19;;;;;;;2.67;2.47;;;21.00;57.60;;;;;;5009838;28;20251;-66
2022/05/06 05:32:49;;;;;;;2.50;2.30;;;21.00;57.60;;;;;;5010456;28;20201;-66
2022/05/06 05:35:20;;;;;;;2.65;2.45;;;21.00;57.60;;;;;;5007396;28;20716;-65
2022/05/06 05:37:51;;;;;;;2.40;2.20;;;21.00;57.50;;;;;;5010770;28;20225;-62
2022/05/06 05:40:26;;;;;;;2.10;2.00;;;20.90;57.50;;;;;;5010417;28;20205;-61
2022/05/06 05:42:57;;;;;;;2.60;2.40;;;20.90;57.50;;;;;;5007429;28;20266;-61
2022/05/06 05:48:29;;;;;;;2.42;2.20;;;20.90;57.50;;;;;;4929011;29;20334;-62
2022/05/06 05:50:59;;;;;;;2.47;2.28;;;20.90;57.50;;;;;;4929853;29;20195;-60
2022/05/06 05:53:30;;;;;;;2.50;2.30;;;20.90;57.50;;;;;;4967248;28;20225;-61
2022/05/06 05:56:02;;;;;;;2.53;2.33;;;20.90;57.60;;;;;;5008567;28;20271;-63
2022/05/06 05:58:34;;;;;;;2.33;2.13;;;20.80;57.60;;;;;;5007443;28;20262;-61
2022/05/06 06:01:06;;;;;;;2.72;2.38;;;20.90;57.60;;;;;;5008658;28;20197;-62
2022/05/06 06:03:37;;;;;;;2.20;2.10;;;20.80;57.70;;;;;;5007766;28;20215;-63
2022/05/06 06:06:08;;;;;;;2.85;2.53;;;20.80;57.70;;;;;;5007722;28;20675;-60
2022/05/06 06:08:38;;;;;;;3.10;2.63;;;20.80;57.60;;;;;;5007838;28;20239;-66
2022/05/06 06:11:11;;;;;;;2.47;2.28;;;20.80;57.60;;;;;;5008543;28;21083;-61
2022/05/06 06:13:42;;;;;;;2.60;2.40;;;20.80;57.60;;;;;;5009379;28;20189;-62
2022/05/06 06:16:13;;;;;;;2.78;2.58;;;20.80;57.60;;;;;;5008321;28;20204;-61
2022/05/06 06:18:44;;;;;;;2.70;2.50;;;20.80;57.60;;;;;;5006635;28;20239;-60
2022/05/06 06:21:14;;;;;;;2.88;2.38;;;20.80;57.60;;;;;;5006677;28;20247;-61
2022/05/06 06:23:45;;;;;;;2.47;2.28;;;20.70;57.60;;;;;;5007528;28;20200;-60
2022/05/06 06:26:17;;;;;;;2.78;2.58;;;20.70;57.60;;;;;;5008146;28;20641;-61
2022/05/06 06:28:51;;;;;;;3.10;2.65;;;20.70;57.60;;;;;;5006975;28;20656;-63
2022/05/06 06:31:24;;;;;;;2.95;2.75;;;20.70;57.90;;;;;;5007505;28;20291;-59
2022/05/06 06:33:55;;;;;;;2.72;2.45;;;20.70;57.70;;;;;;5007471;28;20228;-60
2022/05/06 06:36:25;;;;;;;2.53;2.33;;;20.70;57.70;;;;;;5007655;28;20220;-60
2022/05/06 06:38:56;;;;;;;3.97;2.80;;;20.60;57.70;;;;;;5008653;28;20336;-61
2022/05/06 06:41:28;;;;;;;2.70;2.50;;;20.60;57.80;;;;;;5007626;28;20193;-60
2022/05/06 06:44:00;;;;;;;3.05;2.47;;;20.60;57.80;;;;;;5006135;28;20193;-61
2022/05/06 06:46:32;;;;;;;2.90;2.70;;;20.60;57.80;;;;;;5008034;28;20197;-60
2022/05/06 06:49:02;;;;;;;3.20;2.90;;;20.60;57.80;;;;;;5007478;28;20673;-61
2022/05/06 06:51:33;;;;;;;3.15;2.60;;;20.60;57.80;;;;;;5007991;28;20733;-60
2022/05/06 06:54:03;;;;;;;2.85;2.65;;;20.60;57.80;;;;;;5008226;28;20193;-60
2022/05/06 06:56:36;;;;;;;3.13;2.45;;;20.60;57.80;;;;;;5005815;28;20795;-60
2022/05/06 06:59:07;;;;;;;2.88;2.60;;;20.60;57.80;;;;;;5006657;28;20299;-61
2022/05/06 07:01:37;;;;;;;2.95;2.70;;;20.50;57.80;;;;;;5007368;28;20339;-58
2022/05/06 07:04:08;;;;;;;3.63;2.85;;;20.50;57.80;;;;;;5007952;28;20201;-60
2022/05/06 07:12:14;;;;;;;2.90;2.70;;;20.50;57.90;;;;;;5008267;28;20365;-60
2022/05/06 07:14:44;;;;;;;2.60;2.40;;;20.50;57.90;;;;;;5006833;28;20196;-61
2022/05/06 07:17:15;;;;;;;2.60;2.40;;;20.50;57.90;;;;;;5007757;28;20212;-59
2022/05/06 07:19:45;;;;;;;2.67;2.47;;;20.50;57.90;;;;;;5006829;28;20196;-60
2022/05/06 07:22:16;;;;;;;2.65;2.45;;;20.40;57.90;;;;;;4999403;28;20733;-61
2022/05/06 07:24:49;;;;;;;3.25;2.92;;;20.40;58.00;;;;;;4991479;28;20193;-62
2022/05/06 07:27:23;;;;;;;3.20;2.90;;;20.40;58.00;;;;;;4991952;28;20229;-62
2022/05/06 07:29:54;;;;;;;3.08;2.78;;;20.40;58.00;;;;;;4992033;28;20206;-60
2022/05/06 07:32:24;;;;;;;3.15;2.85;;;20.40;58.00;;;;;;4991974;28;20209;-60
2022/05/06 07:34:55;;;;;;;3.00;2.80;;;20.40;58.00;;;;;;4992099;28;20209;-60
2022/05/06 07:37:25;;;;;;;2.53;2.33;;;20.40;58.00;;;;;;4991650;28;20631;-65
2022/05/06 07:39:56;;;;;;;3.05;2.75;;;20.40;58.00;;;;;;4972556;28;20253;-60
2022/05/06 07:42:30;;;;;;;2.80;2.60;;;20.40;58.00;;;;;;4972449;28;20798;-62
2022/05/06 07:45:01;;;;;;;2.60;2.40;;;20.40;58.00;;;;;;4972572;28;20280;-61
2022/05/06 07:47:32;;;;;;;3.03;2.72;;;20.40;58.10;;;;;;4972390;28;20226;-61
2022/05/06 07:50:02;;;;;;;2.72;2.53;;;20.30;58.70;;;;;;4972286;28;20194;-60
2022/05/06 07:52:34;;;;;;;2.97;2.67;;;20.30;58.10;;;;;;4971951;28;20670;-61
2022/05/06 07:55:05;;;;;;;2.80;2.60;;;20.30;58.10;;;;;;4982324;28;20613;-60
2022/05/06 07:57:37;;;;;;;3.20;2.90;;;20.30;58.10;;;;;;4991333;28;20213;-63
2022/05/06 08:00:09;;;;;;;3.00;2.63;;;20.30;58.10;;;;;;4991900;28;20248;-64
2022/05/06 08:05:27;;;;;;;3.20;2.90;;;20.30;58.20;;;;;;4991259;28;20203;-60
2022/05/06 08:07:58;;;;;;;3.05;2.60;;;20.30;58.20;;;;;;4991217;28;20252;-60
2022/05/06 08:10:28;;;;;;;3.25;3.00;;;20.20;58.10;;;;;;4991537;28;20194;-62
2022/05/06 08:13:01;;;;;;;3.85;3.03;;;20.20;58.20;;;;;;4991463;28;20201;-60
2022/05/06 08:15:32;;;;;;;2.88;2.53;;;20.20;58.20;;;;;;4991238;28;20202;-61
2022/05/06 08:18:03;;;;;;;3.00;2.70;;;20.20;58.20;;;;;;4991567;28;20677;-61
2022/05/06 08:20:33;;;;;;;2.80;2.50;;;20.20;58.20;;;;;;4990851;28;20255;-65
2022/05/06 08:23:04;;;;;;;2.75;2.50;;;20.20;58.20;;;;;;4990437;28;20610;-61
2022/05/06 08:25:34;;;;;;;3.28;2.97;;;20.20;58.30;;;;;;4991604;28;20774;-62
2022/05/06 08:28:07;;;;;;;3.42;2.70;;;20.20;58.20;;;;;;4991196;28;20752;-62
2022/05/06 08:30:38;;;;;;;2.80;2.60;;;20.20;58.20;;;;;;4990985;28;20244;-60
2022/05/06 08:33:08;;;;;;;2.88;2.58;;;20.10;58.20;;;;;;4990931;28;20209;-61
2022/05/06 08:35:39;;;;;;;3.00;2.70;;;20.10;58.20;;;;;;4991332;28;20252;-61
2022/05/06 08:38:10;;;;;;;3.05;2.85;;;20.10;58.20;;;;;;4990879;28;20217;-61
2022/05/06 08:40:41;;;;;;;3.05;2.85;;;20.10;58.20;;;;;;4992655;28;20571;-61
2022/05/06 08:43:15;;;;;;;2.97;2.78;;;20.10;58.20;;;;;;4994763;28;20197;-60
2022/05/06 08:51:21;;;;;;;3.15;2.85;;;20.10;58.20;;;;;;4994194;28;20326;-59
2022/05/06 08:53:54;;;;;;;2.85;2.65;;;20.00;58.20;;;;;;4993298;28;20606;-63
2022/05/06 08:56:24;;;;;;;2.97;2.78;;;20.00;58.20;;;;;;4996496;28;20225;-63
2022/05/06 08:58:57;;;;;;;2.75;2.55;;;20.00;58.30;;;;;;4999710;28;20193;-62
2022/05/06 09:01:27;;;;;;;3.13;2.80;;;20.00;58.30;;;;;;5010266;28;20220;-64
2022/05/06 09:04:04;;;;;;;3.10;2.70;;;20.00;58.30;;;;;;5009334;28;20189;-62
2022/05/06 09:06:35;;;;;;;3.35;3.08;;;20.00;58.40;;;;;;5011342;28;20612;-61
2022/05/06 09:09:05;;;;;;;3.15;2.70;;;20.00;58.40;;;;;;5010210;28;21014;-63
2022/05/06 09:16:39;;;;;;;2.85;2.65;;;20.00;58.40;;;;;;5010870;28;20203;-64
2022/05/06 09:17:24;;;;;;;3.20;2.95;;;20.00;58.40;;;;;;5010728;28;20221;-66
2022/05/06 09:19:55;;;;;;;2.80;2.60;;;19.90;58.40;;;;;;5010483;28;20200;-65
2022/05/06 09:22:31;;;;;;;2.95;2.75;;;19.90;58.30;;;;;;5010962;28;20189;-65
2022/05/06 09:25:01;;;;;;;2.88;2.53;;;19.90;58.40;;;;;;5010378;28;20319;-62
2022/05/06 09:27:32;;;;;;;2.97;2.75;;;19.90;58.40;;;;;;5009030;28;20655;-64
2022/05/06 09:30:10;;;;;;;2.90;2.70;;;19.90;58.40;;;;;;5006479;28;20198;-61
2022/05/06 09:32:41;;;;;;;3.00;2.70;;;19.90;58.40;;;;;;5009399;28;20192;-60
2022/05/06 09:35:15;;;;;;;2.90;2.70;;;19.90;58.40;;;;;;5010646;28;20267;-63
2022/05/06 09:37:46;;;;;;;2.90;2.70;;;19.90;58.50;;;;;;5009789;28;20228;-60
2022/05/06 09:40:18;;;;;;;2.75;2.55;;;19.90;58.50;;;;;;5010833;28;20253;-60
2022/05/06 09:42:59;;;;;;;3.00;2.80;;;19.80;58.50;;;;;;5009513;28;20205;-63
2022/05/06 09:45:37;;;;;;;2.67;2.47;;;19.80;58.50;;;;;;5009794;28;20203;-64
2022/05/06 09:48:09;;;;;;;2.60;2.40;;;19.90;58.60;;;;;;5008580;28;20279;-61
2022/05/06 09:50:40;;;;;;;3.08;2.85;;;19.90;59.20;;;;;;5009570;28;20200;-63
2022/05/06 09:53:11;;;;;;;2.75;2.55;;;19.80;58.60;;;;;;5008924;28;20193;-64
2022/05/06 09:55:44;;;;;;;3.35;3.03;;;19.80;58.60;;;;;;5009914;28;20243;-60
2022/05/06 09:58:16;;;;;;;3.15;2.85;;;19.90;58.60;;;;;;5009597;28;20224;-60
2022/05/06 10:00:48;;;;;;;2.63;2.42;;;19.80;58.50;;;;;;5010561;28;20197;-60
2022/05/06 10:03:22;;;;;;;2.60;2.40;;;19.80;58.50;;;;;;5006112;28;20282;-60
2022/05/06 10:05:53;;;;;;;3.50;3.20;;;19.80;58.50;;;;;;5010054;28;20228;-62
2022/05/06 10:08:25;;;;;;;3.10;2.90;;;19.80;58.60;;;;;;5009880;28;20224;-64
2022/05/06 10:11:01;;;;;;;2.85;2.58;;;19.80;58.60;;;;;;5009469;28;20197;-59
2022/05/06 10:13:34;;;;;;;2.63;2.42;;;19.80;58.60;;;;;;5010308;28;20192;-60
2022/05/06 10:16:07;;;;;;;2.92;2.63;;;19.80;58.60;;;;;;5009467;28;20229;-61
2022/05/06 10:18:39;;;;;;;2.75;2.55;;;19.80;58.50;;;;;;5006865;28;20279;-61
2022/05/06 10:21:10;;;;;;;2.72;2.50;;;19.70;58.60;;;;;;5010667;28;20624;-60
2022/05/06 10:23:53;;;;;;;3.00;2.70;;;19.70;58.50;;;;;;5009139;28;20201;-62
2022/05/06 10:26:47;;;;;;;2.90;2.60;;;19.70;58.60;;;;;;5009658;28;20239;-61
2022/05/06 10:32:59;;;;;;;3.28;2.80;;;19.70;58.60;;;;;;5007914;28;20259;-60
2022/05/06 10:35:44;;;;;;;2.50;2.30;;;19.70;58.60;;;;;;5009317;28;20283;-60
2022/05/06 10:38:25;;;;;;;3.13;2.83;;;19.70;58.70;;;;;;5009205;28;20336;-59
2022/05/06 10:40:58;;;;;;;3.15;2.80;;;19.60;58.60;;;;;;5009019;28;20243;-60
2022/05/06 10:43:53;;;;;;;2.75;2.55;;;19.70;58.70;;;;;;5009047;28;20276;-61
2022/05/06 10:46:36;;;;;;;3.03;2.83;;;19.70;58.70;;;;;;5009828;28;20204;-61
2022/05/06 10:49:50;;;;;;;3.17;2.70;;;19.60;58.60;;;;;;5008276;28;20221;-60
2022/05/06 10:52:44;;;;;;;3.17;2.80;;;19.60;58.70;;;;;;4947878;28;20391;-61
2022/05/06 10:55:17;;;;;;;3.72;2.95;;;19.60;58.60;;;;;;4947525;28;20234;-59
2022/05/06 10:58:02;;;;;;;3.15;2.70;;;19.60;58.60;;;;;;4993365;28;20216;-61
2022/05/06 11:00:37;;;;;;;3.28;2.88;;;19.60;58.70;;;;;;5007099;28;20201;-60
2022/05/06 11:03:08;;;;;;;3.15;2.85;;;19.60;58.70;;;;;;5008121;28;20201;-60
2022/05/06 11:05:42;;;;;;;3.42;3.13;;;19.60;58.70;;;;;;5008276;28;20244;-59
2022/05/06 11:08:17;;;;;;;3.15;2.85;;;19.60;58.80;;;;;;5008788;28;20683;-59
2022/05/06 11:10:49;;;;;;;3.22;2.92;;;19.50;58.70;;;;;;5007810;28;20199;-59
2022/05/06 11:13:20;;;;;;;3.20;2.90;;;19.50;59.40;;;;;;5008442;28;20193;-59
2022/05/06 11:15:55;;;;;;;3.22;2.92;;;19.50;58.80;;;;;;5008529;28;20221;-61
2022/05/06 11:18:26;;;;;;;3.13;2.78;;;19.50;58.80;;;;;;5006903;28;20221;-61
2022/05/06 11:20:58;;;;;;;2.85;2.65;;;19.50;58.80;;;;;;5008466;28;20287;-63
2022/05/06 11:23:31;;;;;;;3.20;2.90;;;19.50;58.80;;;;;;5007959;28;20276;-63
2022/05/06 11:26:02;;;;;;;3.05;2.75;;;19.50;58.80;;;;;;5005092;28;20189;-61
2022/05/06 11:28:32;;;;;;;4.25;3.25;;;19.50;58.80;;;;;;5008448;28;20333;-61
2022/05/06 11:31:03;;;;;;;3.30;3.00;;;19.50;58.80;;;;;;5008546;28;20279;-64
2022/05/06 11:33:34;;;;;;;3.13;2.92;;;19.50;58.80;;;;;;5007526;28;20201;-62
2022/05/06 11:36:08;;;;;;;2.72;2.47;;;19.50;58.70;;;;;;5007333;28;20235;-61
2022/05/06 11:38:40;;;;;;;3.20;2.90;;;19.40;58.70;;;;;;5007340;28;20299;-63
2022/05/06 11:41:12;;;;;;;3.42;3.13;;;19.50;58.70;;;;;;5008095;28;20208;-64
2022/05/06 11:43:43;;;;;;;2.92;2.72;;;19.40;58.70;;;;;;5005671;28;20291;-59
2022/05/06 11:49:05;;;;;;;3.38;3.08;;;19.40;59.00;;;;;;4992080;28;20843;-62
2022/05/06 11:51:40;;;;;;;3.47;3.17;;;19.40;59.00;;;;;;4990185;28;20197;-61
2022/05/06 11:54:11;;;;;;;3.25;2.95;;;19.40;59.00;;;;;;4989924;28;20255;-62
2022/05/06 11:56:43;;;;;;;3.50;3.20;;;19.40;59.00;;;;;;4990386;28;20201;-60
2022/05/06 11:59:14;;;;;;;3.42;3.13;;;19.40;59.00;;;;;;4989752;28;20193;-60
2022/05/06 12:01:45;;;;;;;3.55;3.25;;;19.40;59.00;;;;;;4983675;28;20194;-61
2022/05/06 12:04:15;;;;;;;3.58;3.17;;;19.30;59.00;;;;;;4990490;28;20637;-61
2022/05/06 12:06:52;;;;;;;3.70;3.40;;;19.40;59.00;;;;;;4990169;28;20304;-63
2022/05/06 12:09:24;;;;;;;3.70;3.40;;;19.30;59.00;;;;;;4989827;28;20283;-61
2022/05/06 12:12:07;;;;;;;3.60;3.30;;;19.30;58.90;;;;;;4990140;28;20276;-63
2022/05/06 12:14:38;;;;;;;3.65;3.35;;;19.30;59.00;;;;;;4990711;28;20197;-60
2022/05/06 12:17:13;;;;;;;3.25;2.95;;;19.30;58.90;;;;;;4993277;28;20221;-58
2022/05/06 12:19:44;;;;;;;3.40;3.10;;;19.30;58.90;;;;;;4993511;28;20612;-60
2022/05/06 12:22:17;;;;;;;3.45;3.15;;;19.30;58.90;;;;;;4993413;28;20248;-61
2022/05/06 12:24:49;;;;;;;3.85;3.35;;;19.30;58.90;;;;;;4994019;28;20245;-60
2022/05/06 12:27:27;;;;;;;3.70;3.40;;;19.30;58.90;;;;;;4993670;28;20217;-62
2022/05/06 12:29:58;;;;;;;3.65;3.35;;;19.20;58.90;;;;;;4992983;28;20705;-63
2022/05/06 12:32:29;;;;;;;3.40;3.10;;;19.20;58.90;;;;;;4993185;28;20231;-61
2022/05/06 12:35:11;;;;;;;3.72;3.42;;;19.20;58.90;;;;;;4993100;28;20213;-62
2022/05/06 12:37:56;;;;;;;3.40;3.10;;;19.20;58.90;;;;;;4993133;28;20229;-64
2022/05/06 12:40:32;;;;;;;3.45;3.15;;;19.20;58.90;;;;;;4993523;28;20724;-62
2022/05/06 12:43:10;;;;;;;3.22;2.92;;;19.20;58.90;;;;;;4993538;28;20201;-62
2022/05/06 12:45:56;;;;;;;3.45;3.15;;;19.20;58.90;;;;;;4993008;28;20244;-61
2022/05/06 12:51:13;;;;;;;3.65;3.35;;;19.20;58.90;;;;;;4993624;28;20200;-64
2022/05/06 12:53:45;;;;;;;3.70;3.40;;;19.10;58.90;;;;;;4993086;28;20194;-62
2022/05/06 12:56:21;;;;;;;3.67;3.38;;;19.10;58.90;;;;;;4992963;28;20197;-64
2022/05/06 12:58:51;;;;;;;3.60;3.28;;;19.10;58.90;;;;;;4994213;28;20204;-64
2022/05/06 13:01:22;;;;;;;3.33;3.03;;;19.10;58.90;;;;;;4993534;28;20194;-62
2022/05/06 13:03:53;;;;;;;3.45;3.15;;;19.10;58.90;;;;;;4973710;28;20334;-61
2022/05/06 13:06:23;;;;;;;3.33;3.03;;;19.10;58.90;;;;;;4973427;28;20257;-62
2022/05/06 13:08:56;;;;;;;3.42;3.13;;;19.10;58.90;;;;;;4973137;28;20248;-61
2022/05/06 13:11:26;;;;;;;3.30;3.00;;;19.00;58.90;;;;;;4973362;28;20245;-63
2022/05/06 13:13:58;;;;;;;3.40;3.10;;;19.10;58.90;;;;;;4973587;28;20199;-61
2022/05/06 13:16:29;;;;;;;3.53;3.22;;;19.00;58.90;;;;;;4990572;28;20578;-61
2022/05/06 13:18:59;;;;;;;3.30;3.00;;;19.00;58.90;;;;;;4992546;28;20202;-61
2022/05/06 13:21:30;;;;;;;3.65;3.35;;;19.00;58.90;;;;;;4992359;28;20201;-61
2022/05/06 13:24:02;;;;;;;3.42;3.13;;;19.00;58.90;;;;;;4992416;28;20793;-61
2022/05/06 13:26:33;;;;;;;3.08;2.85;;;19.00;58.90;;;;;;4991503;28;20745;-63
2022/05/06 13:29:04;;;;;;;3.40;3.15;;;19.00;58.90;;;;;;4991959;28;20252;-64
2022/05/06 13:31:35;;;;;;;3.30;3.00;;;18.90;58.90;;;;;;4991492;28;20224;-63
2022/05/06 13:34:06;;;;;;;3.70;3.30;;;18.90;58.90;;;;;;4991958;28;20661;-61
2022/05/06 13:36:36;;;;;;;3.75;3.45;;;18.90;58.80;;;;;;4992090;28;20210;-63
2022/05/06 13:39:09;;;;;;;3.38;3.08;;;18.90;58.90;;;;;;4992416;28;20244;-63
2022/05/06 13:41:41;;;;;;;3.72;3.30;;;18.90;58.90;;;;;;4992488;28;20263;-61
2022/05/06 13:44:11;;;;;;;3.72;3.42;;;18.90;59.00;;;;;;4992519;28;20201;-61
2022/05/06 13:46:42;;;;;;;3.55;3.25;;;18.90;58.80;;;;;;4992240;28;20271;-61
2022/05/06 13:49:12;;;;;;;3.40;3.10;;;18.90;58.80;;;;;;4991198;28;20697;-62